createdAt,value
2018-09-22T00:02:07.586Z,14.74
2018-09-22T00:04:36.057Z,14.73
2018-09-22T00:07:05.164Z,14.77
2018-09-22T00:09:33.872Z,14.79
2018-09-22T00:12:02.764Z,14.81
2018-09-22T00:14:31.429Z,14.80
2018-09-22T00:17:00.007Z,14.74
2018-09-22T00:19:29.746Z,14.69
2018-09-22T00:21:58.314Z,14.68
2018-09-22T00:24:26.950Z,14.67
2018-09-22T00:26:55.463Z,14.68
2018-09-22T00:29:23.954Z,14.66
2018-09-22T00:31:52.955Z,14.60
2018-09-22T00:34:21.546Z,14.51
2018-09-22T00:36:50.066Z,14.48
2018-09-22T00:39:18.872Z,14.42
2018-09-22T00:41:47.703Z,14.40
2018-09-22T00:44:16.177Z,14.40
2018-09-22T00:46:44.661Z,14.41
2018-09-22T00:49:13.175Z,14.45
2018-09-22T00:51:42.409Z,14.40
2018-09-22T00:54:11.014Z,14.34
2018-09-22T00:56:40.073Z,14.31
2018-09-22T00:59:08.985Z,14.28
2018-09-22T01:01:37.581Z,14.28
2018-09-22T01:04:06.385Z,14.38
2018-09-22T01:06:34.823Z,14.42
2018-09-22T01:09:03.598Z,14.46
2018-09-22T01:11:32.057Z,14.46
2018-09-22T01:14:00.510Z,14.44
2018-09-22T01:16:29.956Z,14.38
2018-09-22T01:18:58.576Z,14.37
2018-09-22T01:21:27.294Z,14.40
2018-09-22T01:23:56.503Z,14.38
2018-09-22T01:26:24.955Z,14.44
2018-09-22T01:28:53.633Z,14.46
2018-09-22T01:31:22.356Z,14.44
2018-09-22T01:33:51.165Z,14.38
2018-09-22T01:36:19.936Z,14.31
2018-09-22T01:38:49.103Z,14.25
2018-09-22T01:41:17.647Z,14.23
2018-09-22T01:43:46.354Z,14.24
2018-09-22T01:46:15.804Z,14.24
2018-09-22T01:48:44.392Z,14.20
2018-09-22T01:51:12.941Z,14.18
2018-09-22T01:53:41.819Z,14.14
2018-09-22T01:56:10.566Z,14.07
2018-09-22T01:58:39.045Z,14.06
2018-09-22T02:01:07.693Z,14.05
2018-09-22T02:03:37.152Z,14.05
2018-09-22T02:06:05.959Z,14.03
2018-09-22T02:08:34.456Z,14.01
2018-09-22T02:11:03.163Z,13.95
2018-09-22T02:13:31.721Z,13.94
2018-09-22T02:16:00.580Z,13.92
2018-09-22T02:18:29.448Z,13.87
2018-09-22T02:20:58.136Z,13.90
2018-09-22T02:23:26.753Z,13.89
2018-09-22T02:25:55.434Z,13.87
2018-09-22T02:28:23.890Z,13.90
2018-09-22T02:30:52.679Z,13.88
2018-09-22T02:33:21.349Z,13.85
2018-09-22T02:35:49.892Z,13.84
2018-09-22T02:38:18.559Z,13.85
2018-09-22T02:40:47.165Z,13.84
2018-09-22T02:43:15.611Z,13.82
2018-09-22T02:45:44.501Z,13.80
2018-09-22T02:48:12.989Z,13.78
2018-09-22T02:50:41.703Z,13.76
2018-09-22T02:53:10.577Z,13.78
2018-09-22T02:55:39.128Z,13.78
2018-09-22T02:58:07.947Z,13.76
2018-09-22T03:00:36.676Z,13.77
2018-09-22T03:03:05.368Z,13.75
2018-09-22T03:05:33.993Z,13.79
2018-09-22T03:08:02.629Z,13.82
2018-09-22T03:10:31.725Z,13.83
2018-09-22T03:13:00.394Z,13.84
2018-09-22T03:15:29.009Z,13.83
2018-09-22T03:17:57.820Z,13.84
2018-09-22T03:20:26.299Z,13.87
2018-09-22T03:22:54.812Z,13.92
2018-09-22T03:25:23.307Z,13.96
2018-09-22T03:27:51.801Z,13.97
2018-09-22T03:30:20.501Z,13.94
2018-09-22T03:32:49.059Z,14.00
2018-09-22T03:35:18.020Z,14.02
2018-09-22T03:37:46.598Z,14.08
2018-09-22T03:40:16.075Z,14.13
2018-09-22T03:42:44.646Z,14.08
2018-09-22T03:45:13.282Z,14.04
2018-09-22T03:47:41.764Z,14.01
2018-09-22T03:50:10.303Z,13.93
2018-09-22T03:52:39.085Z,13.94
2018-09-22T03:55:07.729Z,13.90
2018-09-22T03:57:36.204Z,13.92
2018-09-22T04:00:04.950Z,13.96
2018-09-22T04:02:33.413Z,13.99
2018-09-22T04:05:01.986Z,14.02
2018-09-22T04:07:30.673Z,14.04
2018-09-22T04:09:59.203Z,14.05
2018-09-22T04:12:28.110Z,14.04
2018-09-22T04:14:57.407Z,14.01
2018-09-22T04:17:25.995Z,13.98
2018-09-22T04:19:54.878Z,13.94
2018-09-22T04:22:23.515Z,13.89
2018-09-22T04:24:52.101Z,13.91
2018-09-22T04:27:20.746Z,13.85
2018-09-22T04:29:49.297Z,13.81
2018-09-22T04:32:18.350Z,13.79
2018-09-22T04:34:46.874Z,13.79
2018-09-22T04:37:15.348Z,13.76
2018-09-22T04:39:44.412Z,13.72
2018-09-22T04:42:13.209Z,13.70
2018-09-22T04:44:41.731Z,13.67
2018-09-22T04:47:10.310Z,13.67
2018-09-22T04:49:38.797Z,13.63
2018-09-22T04:52:07.740Z,13.61
2018-09-22T04:54:36.266Z,13.59
2018-09-22T04:57:04.934Z,13.60
2018-09-22T04:59:33.671Z,13.64
2018-09-22T05:02:02.291Z,13.55
2018-09-22T05:04:30.821Z,13.50
2018-09-22T05:06:59.275Z,13.47
2018-09-22T05:09:27.747Z,13.39
2018-09-22T05:11:56.379Z,13.46
2018-09-22T05:14:25.975Z,13.43
2018-09-22T05:16:55.205Z,13.40
2018-09-22T05:19:23.736Z,13.40
2018-09-22T05:21:52.375Z,13.40
2018-09-22T05:24:20.901Z,13.37
2018-09-22T05:26:49.866Z,13.37
2018-09-22T05:29:18.616Z,13.34
2018-09-22T05:31:47.396Z,13.31
2018-09-22T05:34:16.148Z,13.28
2018-09-22T05:36:44.644Z,13.23
2018-09-22T05:39:13.475Z,13.20
2018-09-22T05:41:42.193Z,13.20
2018-09-22T05:44:11.941Z,13.24
2018-09-22T05:46:40.580Z,13.26
2018-09-22T05:49:09.046Z,13.24
2018-09-22T05:51:37.653Z,13.24
2018-09-22T05:54:13.074Z,13.28
2018-09-22T05:56:41.650Z,13.27
2018-09-22T05:59:10.362Z,13.23
2018-09-22T06:01:39.641Z,13.27
2018-09-22T06:04:08.134Z,13.26
2018-09-22T06:06:36.611Z,13.26
2018-09-22T06:09:07.574Z,13.26
2018-09-22T06:11:36.490Z,13.25
2018-09-22T06:14:05.070Z,13.26
2018-09-22T06:16:34.136Z,13.24
2018-09-22T06:19:02.758Z,13.27
2018-09-22T06:21:31.305Z,13.27
2018-09-22T06:23:59.973Z,13.27
2018-09-22T06:26:29.010Z,13.28
2018-09-22T06:28:57.775Z,13.25
2018-09-22T06:31:26.179Z,13.30
2018-09-22T06:33:54.703Z,13.34
2018-09-22T06:36:23.472Z,13.31
2018-09-22T06:38:52.308Z,13.36
2018-09-22T06:41:20.871Z,13.38
2018-09-22T06:43:49.365Z,13.41
2018-09-22T06:46:17.973Z,13.41
2018-09-22T06:48:46.502Z,13.42
2018-09-22T06:51:16.015Z,13.42
2018-09-22T06:53:44.601Z,13.46
2018-09-22T06:56:13.087Z,13.47
2018-09-22T06:58:41.729Z,13.49
2018-09-22T07:01:10.385Z,13.52
2018-09-22T07:03:38.885Z,13.55
2018-09-22T07:06:07.657Z,13.57
2018-09-22T07:08:36.532Z,13.60
2018-09-22T07:11:05.917Z,13.66
2018-09-22T07:13:34.597Z,13.72
2018-09-22T07:16:03.752Z,13.80
2018-09-22T07:18:32.288Z,13.80
2018-09-22T07:21:09.110Z,13.84
2018-09-22T07:23:38.263Z,13.87
2018-09-22T07:26:06.960Z,13.97
2018-09-22T07:28:35.678Z,13.97
2018-09-22T07:31:04.259Z,13.97
2018-09-22T07:33:33.134Z,13.95
2018-09-22T07:36:02.347Z,13.99
2018-09-22T07:38:31.752Z,14.02
2018-09-22T07:41:00.246Z,14.06
2018-09-22T07:43:28.684Z,14.13
2018-09-22T07:45:57.795Z,14.19
2018-09-22T07:48:27.151Z,14.29
2018-09-22T07:50:55.641Z,14.34
2018-09-22T07:53:24.350Z,14.36
2018-09-22T07:55:53.178Z,14.38
2018-09-22T07:58:22.128Z,14.39
2018-09-22T08:00:50.820Z,14.41
2018-09-22T08:03:20.000Z,14.45
2018-09-22T08:05:48.809Z,14.51
2018-09-22T08:08:17.467Z,14.53
2018-09-22T08:10:46.291Z,14.57
2018-09-22T08:13:14.991Z,14.59
2018-09-22T08:15:43.487Z,14.67
2018-09-22T08:18:12.486Z,14.71
2018-09-22T08:20:42.406Z,14.75
2018-09-22T08:23:11.149Z,14.72
2018-09-22T08:25:39.645Z,14.78
2018-09-22T08:28:08.492Z,14.80
2018-09-22T08:30:37.143Z,14.87
2018-09-22T08:33:05.686Z,14.92
2018-09-22T08:35:34.448Z,14.95
2018-09-22T08:38:03.105Z,14.95
2018-09-22T08:40:31.686Z,14.94
2018-09-22T08:43:00.509Z,14.93
2018-09-22T08:45:29.197Z,14.96
2018-09-22T08:47:57.810Z,15.01
2018-09-22T08:50:26.360Z,15.10
2018-09-22T08:52:54.996Z,15.19
2018-09-22T08:55:24.402Z,15.25
2018-09-22T08:57:52.943Z,15.34
2018-09-22T09:00:21.567Z,15.39
2018-09-22T09:02:50.774Z,15.50
2018-09-22T09:05:19.528Z,15.59
2018-09-22T09:07:48.230Z,15.64
2018-09-22T09:10:16.755Z,15.70
2018-09-22T09:12:45.372Z,15.74
2018-09-22T09:15:13.981Z,15.81
2018-09-22T09:17:42.601Z,15.89
2018-09-22T09:20:11.257Z,15.96
2018-09-22T09:22:40.765Z,16.05
2018-09-22T09:25:10.128Z,16.13
2018-09-22T09:27:38.747Z,16.17
2018-09-22T09:30:08.013Z,16.24
2018-09-22T09:32:36.593Z,16.31
2018-09-22T09:35:05.406Z,16.34
2018-09-22T09:37:34.134Z,16.38
2018-09-22T09:40:02.955Z,16.43
2018-09-22T09:42:32.008Z,16.53
2018-09-22T09:45:00.688Z,16.59
2018-09-22T09:47:29.313Z,16.64
2018-09-22T09:49:57.785Z,16.65
2018-09-22T09:52:26.384Z,16.75
2018-09-22T09:54:54.918Z,16.87
2018-09-22T09:57:23.502Z,16.94
2018-09-22T09:59:52.027Z,16.97
2018-09-22T10:02:20.869Z,17.08
2018-09-22T10:04:49.363Z,17.17
2018-09-22T10:07:17.889Z,17.30
2018-09-22T10:09:46.574Z,17.43
2018-09-22T10:12:15.335Z,17.55
2018-09-22T10:14:44.013Z,17.57
2018-09-22T10:17:12.989Z,17.58
2018-09-22T10:19:41.656Z,17.57
2018-09-22T10:22:10.116Z,17.52
2018-09-22T10:24:39.316Z,17.48
2018-09-22T10:27:07.925Z,17.49
2018-09-22T10:29:36.384Z,17.49
2018-09-22T10:32:05.517Z,17.52
2018-09-22T10:34:34.227Z,17.62
2018-09-22T10:37:02.812Z,17.62
2018-09-22T10:39:32.021Z,17.57
2018-09-22T10:42:00.739Z,17.55
2018-09-22T10:44:29.428Z,17.55
2018-09-22T10:46:57.894Z,17.51
2018-09-22T10:49:26.417Z,17.43
2018-09-22T10:51:55.594Z,17.35
2018-09-22T10:54:24.426Z,17.35
2018-09-22T10:56:53.040Z,17.34
2018-09-22T10:59:22.466Z,17.36
2018-09-22T11:01:51.123Z,17.32
2018-09-22T11:04:19.744Z,17.26
2018-09-22T11:06:49.548Z,17.23
2018-09-22T11:09:18.352Z,17.27
2018-09-22T11:11:47.660Z,17.33
2018-09-22T11:14:16.173Z,17.38
2018-09-22T11:16:44.674Z,17.30
2018-09-22T11:19:13.525Z,17.27
2018-09-22T11:21:42.034Z,17.26
2018-09-22T11:24:10.884Z,17.25
2018-09-22T11:26:39.409Z,17.37
2018-09-22T11:29:08.053Z,17.47
2018-09-22T11:31:36.988Z,17.55
2018-09-22T11:34:05.596Z,17.50
2018-09-22T11:36:34.725Z,17.49
2018-09-22T11:39:04.378Z,17.45
2018-09-22T11:41:32.877Z,17.42
2018-09-22T11:44:01.427Z,17.35
2018-09-22T11:46:30.005Z,17.29
2018-09-22T11:48:58.474Z,17.22
2018-09-22T11:51:26.931Z,16.90
2018-09-22T11:53:55.544Z,16.80
2018-09-22T11:56:24.214Z,16.80
2018-09-22T11:58:52.705Z,16.87
2018-09-22T12:01:21.409Z,16.92
2018-09-22T12:03:49.813Z,16.87
2018-09-22T12:06:19.209Z,16.88
2018-09-22T12:08:47.687Z,16.97
2018-09-22T12:11:16.263Z,17.07
2018-09-22T12:13:44.879Z,17.09
2018-09-22T12:16:13.491Z,17.16
2018-09-22T12:18:42.109Z,17.26
2018-09-22T12:21:10.840Z,17.39
2018-09-22T12:23:40.465Z,17.45
2018-09-22T12:26:09.068Z,17.53
2018-09-22T12:28:37.627Z,17.56
2018-09-22T12:31:06.536Z,17.51
2018-09-22T12:33:35.062Z,17.49
2018-09-22T12:36:03.690Z,17.48
2018-09-22T12:38:32.282Z,17.39
2018-09-22T12:41:01.056Z,17.36
2018-09-22T12:43:29.695Z,17.30
2018-09-22T12:45:58.189Z,17.23
2018-09-22T12:48:26.788Z,17.05
2018-09-22T12:50:55.231Z,17.00
2018-09-22T12:53:23.726Z,16.91
2018-09-22T12:55:52.330Z,16.85
2018-09-22T12:58:20.836Z,16.73
2018-09-22T13:00:49.373Z,16.46
2018-09-22T13:03:17.916Z,16.00
2018-09-22T13:05:46.634Z,15.57
2018-09-22T13:08:15.978Z,15.32
2018-09-22T13:10:44.590Z,15.24
2018-09-22T13:13:13.360Z,15.21
2018-09-22T13:15:42.265Z,15.28
2018-09-22T13:18:11.720Z,15.27
2018-09-22T13:20:40.388Z,15.19
2018-09-22T13:23:09.116Z,15.24
2018-09-22T13:25:37.596Z,15.26
2018-09-22T13:28:06.817Z,15.30
2018-09-22T13:30:35.328Z,15.37
2018-09-22T13:33:03.923Z,15.49
2018-09-22T13:35:32.516Z,15.55
2018-09-22T13:38:01.205Z,15.54
2018-09-22T13:40:29.921Z,15.52
2018-09-22T13:42:58.907Z,15.49
2018-09-22T13:45:27.489Z,15.50
2018-09-22T13:47:56.367Z,15.45
2018-09-22T13:50:25.923Z,15.37
2018-09-22T13:52:55.807Z,15.31
2018-09-22T13:55:24.524Z,15.22
2018-09-22T13:57:53.055Z,15.15
2018-09-22T14:00:22.270Z,15.11
2018-09-22T14:02:50.839Z,15.13
2018-09-22T14:05:19.396Z,15.14
2018-09-22T14:07:48.039Z,15.15
2018-09-22T14:10:17.478Z,15.22
2018-09-22T14:12:47.034Z,15.23
2018-09-22T14:15:15.523Z,15.24
2018-09-22T14:17:44.176Z,15.24
2018-09-22T14:20:13.271Z,15.29
2018-09-22T14:22:42.219Z,15.32
2018-09-22T14:25:11.025Z,15.23
2018-09-22T14:27:39.556Z,15.20
2018-09-22T14:30:08.322Z,15.25
2018-09-22T14:32:37.083Z,15.31
2018-09-22T14:35:05.884Z,15.43
2018-09-22T14:37:34.315Z,15.59
2018-09-22T14:40:02.848Z,15.62
2018-09-22T14:42:31.469Z,15.62
2018-09-22T14:44:59.954Z,15.59
2018-09-22T14:47:28.800Z,15.48
2018-09-22T14:49:57.445Z,15.49
2018-09-22T14:52:26.926Z,15.48
2018-09-22T14:54:55.556Z,15.54
2018-09-22T14:57:24.226Z,15.48
2018-09-22T14:59:53.488Z,15.37
2018-09-22T15:02:22.388Z,15.32
2018-09-22T15:04:50.865Z,15.23
2018-09-22T15:07:19.671Z,15.25
2018-09-22T15:09:48.413Z,15.26
2018-09-22T15:12:16.917Z,15.26
2018-09-22T15:14:46.139Z,15.20
2018-09-22T15:17:15.363Z,15.14
2018-09-22T15:19:43.971Z,15.13
2018-09-22T15:22:12.462Z,15.17
2018-09-22T15:24:40.965Z,15.17
2018-09-22T15:27:09.625Z,15.19
2018-09-22T15:29:38.252Z,15.22
2018-09-22T15:32:07.008Z,15.27
2018-09-22T15:34:35.742Z,15.22
2018-09-22T15:37:04.278Z,15.15
2018-09-22T15:39:32.881Z,15.11
2018-09-22T15:42:01.703Z,15.08
2018-09-22T15:44:30.983Z,15.00
2018-09-22T15:46:59.698Z,14.89
2018-09-22T15:49:28.299Z,14.84
2018-09-22T15:51:56.863Z,14.82
2018-09-22T15:54:25.384Z,14.76
2018-09-22T15:56:54.012Z,14.75
2018-09-22T15:59:22.532Z,14.72
2018-09-22T16:01:51.096Z,14.64
2018-09-22T16:04:19.620Z,14.63
2018-09-22T16:06:48.141Z,14.64
2018-09-22T16:09:16.668Z,14.62
2018-09-22T16:11:45.233Z,14.60
2018-09-22T16:14:13.802Z,14.60
2018-09-22T16:16:42.447Z,14.62
2018-09-22T16:19:11.209Z,14.66
2018-09-22T16:21:39.681Z,14.59
2018-09-22T16:24:08.262Z,14.56
2018-09-22T16:26:36.753Z,14.52
2018-09-22T16:29:05.980Z,14.46
2018-09-22T16:31:34.565Z,14.42
2018-09-22T16:34:03.505Z,14.39
2018-09-22T16:36:31.985Z,14.36
2018-09-22T16:39:00.565Z,14.34
2018-09-22T16:41:29.434Z,14.30
2018-09-22T16:43:58.107Z,14.25
2018-09-22T16:46:26.821Z,14.25
2018-09-22T16:48:55.884Z,14.26
2018-09-22T16:51:24.381Z,14.26
2018-09-22T16:53:52.838Z,14.19
2018-09-22T16:56:21.873Z,14.14
2018-09-22T16:58:51.054Z,14.17
2018-09-22T17:01:21.076Z,14.13
2018-09-22T17:03:50.298Z,14.13
2018-09-22T17:06:19.364Z,14.10
2018-09-22T17:08:48.160Z,14.04
2018-09-22T17:11:16.893Z,14.02
2018-09-22T17:13:45.592Z,14.04
2018-09-22T17:16:14.210Z,14.04
2018-09-22T17:18:44.248Z,14.01
2018-09-22T17:21:12.733Z,13.99
2018-09-22T17:23:41.660Z,13.95
2018-09-22T17:26:10.112Z,13.89
2018-09-22T17:28:38.666Z,13.85
2018-09-22T17:31:07.150Z,13.83
2018-09-22T17:33:35.627Z,13.80
2018-09-22T17:36:04.205Z,13.80
2018-09-22T17:38:32.763Z,13.76
2018-09-22T17:41:01.384Z,13.82
2018-09-22T17:43:30.412Z,13.76
2018-09-22T17:45:58.962Z,13.81
2018-09-22T17:48:27.579Z,13.79
2018-09-22T17:50:56.527Z,13.76
2018-09-22T17:53:25.058Z,13.80
2018-09-22T17:55:53.516Z,13.81
2018-09-22T17:58:21.994Z,13.81
2018-09-22T18:00:50.530Z,13.83
2018-09-22T18:03:19.169Z,13.81
2018-09-22T18:05:48.192Z,13.79
2018-09-22T18:08:17.292Z,13.76
2018-09-22T18:10:45.853Z,13.78
2018-09-22T18:13:14.395Z,13.81
2018-09-22T18:15:42.849Z,13.82
2018-09-22T18:18:18.197Z,13.84
2018-09-22T18:20:46.673Z,13.83
2018-09-22T18:23:15.321Z,13.78
2018-09-22T18:25:43.951Z,13.74
2018-09-22T18:28:13.049Z,13.74
2018-09-22T18:30:41.991Z,13.73
2018-09-22T18:33:10.696Z,13.74
2018-09-22T18:35:39.152Z,13.72
2018-09-22T18:38:07.767Z,13.71
2018-09-22T18:40:36.497Z,13.71
2018-09-22T18:43:05.265Z,13.69
2018-09-22T18:45:34.505Z,13.68
2018-09-22T18:48:02.986Z,13.66
2018-09-22T18:50:31.619Z,13.64
2018-09-22T18:53:00.177Z,13.65
2018-09-22T18:55:29.140Z,13.63
2018-09-22T18:57:57.791Z,13.64
2018-09-22T19:00:26.269Z,13.63
2018-09-22T19:02:54.877Z,13.56
2018-09-22T19:05:23.333Z,13.53
2018-09-22T19:07:52.120Z,13.56
2018-09-22T19:10:20.784Z,13.55
2018-09-22T19:12:49.405Z,13.58
2018-09-22T19:15:53.706Z,13.61
2018-09-22T19:19:27.209Z,13.60
2018-09-22T19:21:58.119Z,13.57
2018-09-22T19:24:32.537Z,13.57
2018-09-22T19:27:05.208Z,13.55
2018-09-22T19:29:39.173Z,13.56
2018-09-22T19:32:13.103Z,13.57
2018-09-22T19:34:45.993Z,13.57
2018-09-22T19:37:33.757Z,13.58
2018-09-22T19:40:08.409Z,13.53
2018-09-22T19:42:45.430Z,13.55
2018-09-22T19:45:18.731Z,13.57
2018-09-22T19:47:55.101Z,13.54
2018-09-22T19:50:32.266Z,13.49
2018-09-22T19:53:01.157Z,13.46
2018-09-22T19:55:29.697Z,13.46
2018-09-22T19:57:58.291Z,13.39
2018-09-22T20:00:26.753Z,13.40
2018-09-22T20:02:55.230Z,13.42
2018-09-22T20:05:23.962Z,13.42
2018-09-22T20:07:52.542Z,13.44
2018-09-22T20:10:21.113Z,13.47
2018-09-22T20:12:49.696Z,13.48
2018-09-22T20:15:18.400Z,13.47
2018-09-22T20:17:46.991Z,13.41
2018-09-22T20:20:15.500Z,13.43
2018-09-22T20:22:44.049Z,13.47
2018-09-22T20:25:12.572Z,13.49
2018-09-22T20:27:41.112Z,13.43
2018-09-22T20:30:10.093Z,13.40
2018-09-22T20:32:38.602Z,13.36
2018-09-22T20:35:07.532Z,13.37
2018-09-22T20:37:36.129Z,13.37
2018-09-22T20:40:05.073Z,13.41
2018-09-22T20:42:33.721Z,13.43
2018-09-22T20:45:02.330Z,13.40
2018-09-22T20:47:30.897Z,13.36
2018-09-22T20:49:59.544Z,13.36
2018-09-22T20:52:28.142Z,13.39
2018-09-22T20:54:56.620Z,13.41
2018-09-22T20:57:25.040Z,13.42
2018-09-22T20:59:53.636Z,13.43
2018-09-22T21:02:22.105Z,13.41
2018-09-22T21:07:43.915Z,13.28
2018-09-22T21:10:12.597Z,13.30
2018-09-22T21:12:41.684Z,13.29
2018-09-22T21:15:10.271Z,13.27
2018-09-22T21:17:39.576Z,13.23
2018-09-22T21:20:08.200Z,13.21
2018-09-22T21:22:36.672Z,13.17
2018-09-22T21:25:05.281Z,13.20
2018-09-22T21:27:33.788Z,13.24
2018-09-22T21:30:03.763Z,13.26
2018-09-22T21:32:32.372Z,13.22
2018-09-22T21:35:00.813Z,13.19
2018-09-22T21:37:29.259Z,13.19
2018-09-22T21:39:57.669Z,13.18
2018-09-22T21:42:26.294Z,13.17
2018-09-22T21:44:54.741Z,13.11
2018-09-22T21:47:23.599Z,13.15
2018-09-22T21:49:52.190Z,13.13
2018-09-22T21:52:20.783Z,13.11
2018-09-22T21:54:49.490Z,13.14
2018-09-22T21:57:17.855Z,13.15
2018-09-22T21:59:46.642Z,13.10
2018-09-22T22:02:15.332Z,13.10
2018-09-22T22:04:43.780Z,13.04
2018-09-22T22:07:12.234Z,13.04
2018-09-22T22:09:40.874Z,13.05
2018-09-22T22:12:09.374Z,13.07
2018-09-22T22:14:37.833Z,13.06
2018-09-22T22:17:06.486Z,13.10
2018-09-22T22:19:35.304Z,13.10
2018-09-22T22:22:03.887Z,13.11
2018-09-22T22:24:32.405Z,13.12
2018-09-22T22:27:00.994Z,13.14
2018-09-22T22:29:29.504Z,13.22
2018-09-22T22:31:58.959Z,13.21
2018-09-22T22:34:27.395Z,13.22
2018-09-22T22:36:55.864Z,13.25
2018-09-22T22:39:31.089Z,13.23
2018-09-22T22:42:00.667Z,13.21
2018-09-22T22:44:29.212Z,13.20
2018-09-22T22:46:57.641Z,13.22
2018-09-22T22:49:26.193Z,13.23
2018-09-22T22:51:54.676Z,13.21
2018-09-22T22:54:23.129Z,13.22
2018-09-22T22:56:51.775Z,13.22
2018-09-22T22:59:20.238Z,13.22
2018-09-22T23:01:48.872Z,13.23
2018-09-22T23:04:17.516Z,13.25
2018-09-22T23:06:46.101Z,13.20
2018-09-22T23:09:14.781Z,13.19
2018-09-22T23:11:43.281Z,13.16
2018-09-22T23:14:11.845Z,13.15
2018-09-22T23:16:40.330Z,13.12
2018-09-22T23:19:09.432Z,13.11
2018-09-22T23:21:37.908Z,13.09
2018-09-22T23:24:06.633Z,13.06
2018-09-22T23:26:35.260Z,13.04
2018-09-22T23:29:03.990Z,13.02
2018-09-22T23:31:32.850Z,13.03
2018-09-22T23:34:01.496Z,12.99
2018-09-22T23:36:29.965Z,13.04
2018-09-22T23:38:59.460Z,13.05
2018-09-22T23:41:34.504Z,13.04
2018-09-22T23:44:02.988Z,13.02
2018-09-22T23:46:31.477Z,13.03
2018-09-22T23:49:00.056Z,13.04
2018-09-22T23:51:28.517Z,13.02
2018-09-22T23:53:57.771Z,13.01
2018-09-22T23:56:26.735Z,12.98
2018-09-22T23:58:55.437Z,12.97
